createdAt,value
2023-05-10T00:00:24.735Z,10.65
2023-05-10T00:02:26.470Z,12.25
2023-05-10T00:04:28.521Z,9.98
2023-05-10T00:06:29.965Z,15.18
2023-05-10T00:08:31.324Z,16.38
2023-05-10T00:10:32.686Z,22.52
2023-05-10T00:12:34.117Z,17.25
2023-05-10T00:14:35.655Z,15.13
2023-05-10T00:16:37.107Z,12.38
2023-05-10T00:18:38.515Z,13.70
2023-05-10T00:20:39.933Z,9.88
2023-05-10T00:22:41.413Z,11.75
2023-05-10T00:24:42.848Z,12.88
2023-05-10T00:26:44.379Z,8.00
2023-05-10T00:28:45.768Z,7.38
2023-05-10T00:30:47.211Z,15.15
2023-05-10T00:32:50.879Z,9.38
2023-05-10T00:34:52.658Z,16.42
2023-05-10T00:36:54.145Z,16.80
2023-05-10T00:38:55.605Z,23.65
2023-05-10T00:40:57.046Z,18.38
2023-05-10T00:42:59.267Z,20.35
2023-05-10T00:45:00.740Z,22.63
2023-05-10T00:47:02.177Z,14.63
2023-05-10T00:49:03.636Z,13.13
2023-05-10T00:51:05.072Z,10.70
2023-05-10T00:53:06.780Z,12.13
2023-05-10T00:55:08.531Z,14.80
2023-05-10T00:57:10.345Z,10.88
2023-05-10T00:59:12.050Z,14.48
2023-05-10T01:01:13.657Z,20.45
2023-05-10T01:03:15.453Z,35.92
2023-05-10T01:05:17.083Z,74.43
2023-05-10T01:07:18.568Z,79.28
2023-05-10T01:09:20.625Z,89.28
2023-05-10T01:11:22.297Z,127.85
2023-05-10T01:13:52.912Z,144.35
2023-05-10T01:15:54.844Z,28.35
2023-05-10T01:17:57.091Z,48.08
2023-05-10T01:19:58.571Z,21.65
2023-05-10T01:22:06.416Z,23.98
2023-05-10T01:24:15.792Z,18.27
2023-05-10T01:26:29.505Z,15.52
2023-05-10T01:28:59.728Z,14.05
2023-05-10T01:31:07.438Z,12.85
2023-05-10T01:33:12.008Z,15.35
2023-05-10T01:35:18.193Z,13.65
2023-05-10T01:37:22.653Z,26.63
2023-05-10T01:39:24.001Z,20.08
2023-05-10T01:41:41.921Z,20.05
2023-05-10T01:43:46.705Z,16.90
2023-05-10T01:45:56.845Z,16.40
2023-05-10T01:48:09.383Z,17.48
2023-05-10T01:50:23.438Z,17.05
2023-05-10T01:52:29.385Z,11.32
2023-05-10T01:54:31.260Z,8.30
2023-05-10T01:56:34.145Z,13.70
2023-05-10T01:58:37.445Z,12.75
2023-05-10T02:00:41.292Z,13.05
2023-05-10T02:02:45.587Z,14.73
2023-05-10T02:04:47.379Z,20.88
2023-05-10T02:06:49.478Z,19.05
2023-05-10T02:08:51.511Z,13.13
2023-05-10T02:10:54.590Z,11.38
2023-05-10T02:12:56.881Z,11.90
2023-05-10T02:15:00.480Z,16.85
2023-05-10T02:17:03.017Z,18.40
2023-05-10T02:19:05.189Z,16.45
2023-05-10T02:21:07.066Z,18.05
2023-05-10T02:23:09.530Z,12.93
2023-05-10T02:25:11.804Z,19.60
2023-05-10T02:27:13.507Z,19.20
2023-05-10T02:29:15.593Z,13.50
2023-05-10T02:31:18.065Z,22.00
2023-05-10T02:33:20.458Z,27.85
2023-05-10T02:35:22.784Z,28.90
2023-05-10T02:37:25.185Z,26.95
2023-05-10T02:39:29.612Z,22.25
2023-05-10T02:41:32.948Z,24.17
2023-05-10T02:43:34.801Z,22.63
2023-05-10T02:45:36.541Z,25.83
2023-05-10T02:47:38.093Z,35.00
2023-05-10T02:49:39.632Z,31.02
2023-05-10T02:51:42.993Z,28.52
2023-05-10T02:53:45.214Z,22.27
2023-05-10T02:55:49.901Z,20.75
2023-05-10T02:57:57.873Z,23.63
2023-05-10T02:59:59.541Z,18.55
2023-05-10T03:02:01.559Z,16.65
2023-05-10T03:04:03.005Z,15.80
2023-05-10T03:06:04.552Z,17.13
2023-05-10T03:08:07.341Z,18.63
2023-05-10T03:10:09.104Z,15.88
2023-05-10T03:12:19.501Z,15.65
2023-05-10T03:14:39.990Z,16.73
2023-05-10T03:16:45.032Z,17.48
2023-05-10T03:18:53.905Z,18.70
2023-05-10T03:21:04.035Z,22.95
2023-05-10T03:23:08.328Z,26.05
2023-05-10T03:25:11.501Z,27.67
2023-05-10T03:27:14.253Z,21.08
2023-05-10T03:29:16.091Z,14.48
2023-05-10T03:31:18.394Z,11.27
2023-05-10T03:33:19.880Z,18.88
2023-05-10T03:35:21.314Z,12.70
2023-05-10T03:37:22.734Z,18.45
2023-05-10T03:39:24.270Z,13.02
2023-05-10T03:41:26.443Z,11.85
2023-05-10T03:43:27.841Z,12.27
2023-05-10T03:45:29.404Z,11.50
2023-05-10T03:47:30.933Z,11.75
2023-05-10T03:49:32.390Z,13.70
2023-05-10T03:51:33.844Z,16.25
2023-05-10T03:53:35.313Z,14.63
2023-05-10T03:55:37.529Z,19.05
2023-05-10T03:57:39.087Z,13.43
2023-05-10T03:59:40.646Z,10.85
2023-05-10T04:01:42.065Z,9.75
2023-05-10T04:03:43.584Z,10.05
2023-05-10T04:05:45.082Z,9.90
2023-05-10T04:07:48.067Z,15.38
2023-05-10T04:09:52.653Z,31.83
2023-05-10T04:11:54.254Z,14.45
2023-05-10T04:13:55.801Z,15.13
2023-05-10T04:15:57.198Z,16.45
2023-05-10T04:17:58.709Z,14.32
2023-05-10T04:20:00.220Z,16.52
2023-05-10T04:22:03.140Z,15.98
2023-05-10T04:24:04.737Z,18.58
2023-05-10T04:26:06.527Z,12.85
2023-05-10T04:28:07.897Z,13.35
2023-05-10T04:30:09.451Z,14.65
2023-05-10T04:32:11.415Z,11.90
2023-05-10T04:34:12.850Z,16.63
2023-05-10T04:36:14.270Z,12.45
2023-05-10T04:38:15.643Z,16.67
2023-05-10T04:40:17.358Z,11.27
2023-05-10T04:42:19.077Z,15.95
2023-05-10T04:44:20.594Z,13.82
2023-05-10T04:46:22.040Z,15.00
2023-05-10T04:48:23.456Z,12.30
2023-05-10T04:50:24.852Z,14.60
2023-05-10T04:52:27.318Z,15.32
2023-05-10T04:54:28.689Z,17.60
2023-05-10T04:56:30.115Z,13.73
2023-05-10T04:58:31.519Z,10.55
2023-05-10T05:00:33.883Z,9.40
2023-05-10T05:02:35.533Z,10.77
2023-05-10T05:04:36.977Z,16.55
2023-05-10T05:06:38.405Z,12.80
2023-05-10T05:08:39.859Z,11.93
2023-05-10T05:10:41.313Z,16.70
2023-05-10T05:12:42.961Z,14.02
2023-05-10T05:14:44.425Z,13.35
2023-05-10T05:16:45.847Z,21.48
2023-05-10T05:18:47.230Z,19.35
2023-05-10T05:20:48.619Z,13.35
2023-05-10T05:22:50.054Z,11.77
2023-05-10T05:24:51.529Z,13.30
2023-05-10T05:26:52.937Z,10.02
2023-05-10T05:28:55.625Z,7.35
2023-05-10T05:30:57.316Z,15.75
2023-05-10T05:32:58.843Z,8.38
2023-05-10T05:35:00.370Z,11.15
2023-05-10T05:37:01.765Z,8.63
2023-05-10T05:39:03.186Z,8.35
2023-05-10T05:41:04.607Z,8.50
2023-05-10T05:43:06.232Z,9.57
2023-05-10T05:45:08.083Z,6.78
2023-05-10T05:47:09.625Z,7.80
2023-05-10T05:49:11.070Z,7.32
2023-05-10T05:51:12.516Z,7.80
2023-05-10T05:53:13.917Z,5.75
2023-05-10T05:55:15.672Z,7.15
2023-05-10T05:57:17.172Z,7.43
2023-05-10T05:59:18.576Z,14.07
2023-05-10T06:01:20.032Z,7.22
2023-05-10T06:03:21.644Z,9.80
2023-05-10T06:05:23.378Z,17.80
2023-05-10T06:07:24.866Z,9.75
2023-05-10T06:09:26.431Z,7.03
2023-05-10T06:11:27.947Z,7.85
2023-05-10T06:13:33.597Z,6.85
2023-05-10T06:15:35.709Z,12.00
2023-05-10T06:17:37.080Z,8.50
2023-05-10T06:19:38.485Z,9.35
2023-05-10T06:21:39.866Z,7.35
2023-05-10T06:23:41.454Z,10.07
2023-05-10T06:25:42.826Z,10.35
2023-05-10T06:27:45.738Z,5.40
2023-05-10T06:29:52.114Z,7.80
2023-05-10T06:31:55.918Z,8.77
2023-05-10T06:33:57.461Z,5.47
2023-05-10T06:35:59.040Z,6.63
2023-05-10T06:38:00.628Z,7.40
2023-05-10T06:40:02.859Z,6.43
2023-05-10T06:42:05.610Z,15.88
2023-05-10T06:44:07.038Z,9.55
2023-05-10T06:46:08.497Z,7.60
2023-05-10T06:48:10.099Z,7.53
2023-05-10T06:50:12.542Z,7.75
2023-05-10T06:52:14.138Z,6.53
2023-05-10T06:54:15.546Z,6.43
2023-05-10T06:56:16.964Z,9.85
2023-05-10T06:58:18.417Z,7.53
2023-05-10T07:00:20.532Z,6.70
2023-05-10T07:02:22.416Z,6.65
2023-05-10T07:04:23.871Z,6.28
2023-05-10T07:06:33.343Z,10.60
2023-05-10T07:08:35.640Z,8.43
2023-05-10T07:10:37.096Z,6.68
2023-05-10T07:12:39.284Z,5.35
2023-05-10T07:14:40.940Z,10.68
2023-05-10T07:16:42.459Z,8.20
2023-05-10T07:18:43.941Z,8.90
2023-05-10T07:20:45.440Z,6.88
2023-05-10T07:22:46.863Z,6.63
2023-05-10T07:24:48.442Z,5.07
2023-05-10T07:26:49.878Z,7.93
2023-05-10T07:28:51.340Z,5.05
2023-05-10T07:30:52.784Z,5.93
2023-05-10T07:32:54.280Z,4.68
2023-05-10T07:34:55.712Z,6.68
2023-05-10T07:36:58.969Z,5.47
2023-05-10T07:39:00.474Z,7.80
2023-05-10T07:41:01.934Z,7.93
2023-05-10T07:43:03.376Z,6.43
2023-05-10T07:45:05.060Z,7.72
2023-05-10T07:47:06.665Z,4.93
2023-05-10T07:49:08.054Z,6.95
2023-05-10T07:51:10.502Z,6.43
2023-05-10T07:53:12.085Z,7.15
2023-05-10T07:55:13.648Z,9.77
2023-05-10T07:57:16.433Z,6.65
2023-05-10T07:59:18.312Z,6.18
2023-05-10T08:01:19.765Z,11.90
2023-05-10T08:03:21.295Z,6.90
2023-05-10T08:05:22.802Z,7.18
2023-05-10T08:07:25.359Z,7.65
2023-05-10T08:09:26.850Z,4.85
2023-05-10T08:11:31.417Z,7.25
2023-05-10T08:13:33.386Z,6.72
2023-05-10T08:15:34.897Z,4.85
2023-05-10T08:17:36.336Z,4.95
2023-05-10T08:19:37.834Z,7.45
2023-05-10T08:21:39.332Z,6.32
2023-05-10T08:23:40.766Z,6.45
2023-05-10T08:25:42.251Z,5.43
2023-05-10T08:27:43.678Z,5.82
2023-05-10T08:29:50.093Z,6.60
2023-05-10T08:31:52.152Z,4.85
2023-05-10T08:33:53.799Z,5.00
2023-05-10T08:35:55.401Z,7.15
2023-05-10T08:37:56.801Z,5.53
2023-05-10T08:39:58.543Z,5.88
2023-05-10T08:42:02.404Z,5.53
2023-05-10T08:44:05.123Z,11.85
2023-05-10T08:46:08.021Z,5.45
2023-05-10T08:48:11.161Z,5.53
2023-05-10T08:50:12.794Z,4.80
2023-05-10T08:52:15.833Z,4.65
2023-05-10T08:54:17.439Z,5.55
2023-05-10T08:56:19.069Z,6.18
2023-05-10T08:58:20.700Z,4.50
2023-05-10T09:00:23.965Z,8.35
2023-05-10T09:02:26.154Z,6.20
2023-05-10T09:04:28.487Z,4.95
2023-05-10T09:06:30.292Z,7.07
2023-05-10T09:08:32.150Z,6.65
2023-05-10T09:10:33.679Z,3.60
2023-05-10T09:12:35.659Z,3.75
2023-05-10T09:14:37.163Z,5.63
2023-05-10T09:16:38.616Z,5.05
2023-05-10T09:18:40.113Z,4.45
2023-05-10T09:20:41.970Z,5.95
2023-05-10T09:22:43.399Z,5.88
2023-05-10T09:24:46.334Z,3.88
2023-05-10T09:26:49.447Z,5.13
2023-05-10T09:28:51.967Z,15.15
2023-05-10T09:30:54.470Z,4.60
2023-05-10T09:32:56.692Z,7.40
2023-05-10T09:34:58.414Z,5.25
2023-05-10T09:37:07.344Z,6.50
2023-05-10T09:39:08.842Z,9.73
2023-05-10T09:41:16.342Z,3.45
2023-05-10T09:43:17.787Z,8.88
2023-05-10T09:45:19.274Z,8.73
2023-05-10T09:47:20.888Z,7.72
2023-05-10T09:49:22.644Z,10.23
2023-05-10T09:51:25.520Z,8.85
2023-05-10T09:53:26.914Z,5.45
2023-05-10T09:55:37.305Z,8.32
2023-05-10T09:57:38.940Z,3.22
2023-05-10T09:59:43.552Z,6.07
2023-05-10T10:01:50.202Z,3.90
2023-05-10T10:03:51.595Z,5.35
2023-05-10T10:05:54.333Z,10.80
2023-05-10T10:07:56.437Z,5.55
2023-05-10T10:09:58.521Z,5.68
2023-05-10T10:12:03.577Z,4.57
2023-05-10T10:14:05.426Z,8.13
2023-05-10T10:16:07.378Z,11.35
2023-05-10T10:18:09.128Z,5.45
2023-05-10T10:20:12.203Z,5.15
2023-05-10T10:22:13.956Z,10.00
2023-05-10T10:24:15.403Z,7.43
2023-05-10T10:26:18.764Z,8.43
2023-05-10T10:28:22.612Z,6.78
2023-05-10T10:30:30.243Z,4.78
2023-05-10T10:32:38.917Z,8.20
2023-05-10T10:34:41.116Z,7.13
2023-05-10T10:36:48.755Z,3.10
2023-05-10T10:38:50.165Z,3.22
2023-05-10T10:41:12.227Z,3.03
2023-05-10T10:43:27.126Z,4.80
2023-05-10T10:45:28.589Z,5.93
2023-05-10T10:47:32.290Z,4.68
2023-05-10T10:49:34.754Z,4.18
2023-05-10T10:51:39.250Z,5.70
2023-05-10T10:53:41.437Z,4.68
2023-05-10T10:56:02.873Z,6.32
2023-05-10T10:58:05.600Z,5.22
2023-05-10T11:00:25.749Z,4.90
2023-05-10T11:02:39.367Z,2.20
2023-05-10T11:04:47.674Z,3.92
2023-05-10T11:06:49.274Z,3.40
2023-05-10T11:08:51.861Z,3.42
2023-05-10T11:11:13.549Z,7.32
2023-05-10T11:13:15.059Z,2.97
2023-05-10T11:15:17.041Z,2.85
2023-05-10T11:32:10.950Z,268.63
2023-05-10T11:42:18.200Z,268.15
2023-05-10T11:44:19.739Z,236.88
2023-05-10T11:46:23.283Z,226.88
2023-05-10T11:48:25.190Z,365.20
2023-05-10T11:50:29.873Z,315.42
2023-05-10T11:52:37.419Z,435.75
2023-05-10T12:29:18.738Z,21.63
2023-05-10T12:31:20.419Z,6.10
2023-05-10T12:33:22.051Z,5.90
2023-05-10T12:35:25.100Z,8.30
2023-05-10T12:37:29.375Z,4.15
2023-05-10T12:39:42.200Z,5.60
2023-05-10T12:41:43.850Z,4.93
2023-05-10T12:43:46.641Z,5.72
2023-05-10T12:45:49.774Z,10.88
2023-05-10T12:47:51.594Z,6.68
2023-05-10T12:49:53.385Z,6.53
2023-05-10T12:51:54.904Z,8.68
2023-05-10T12:53:56.673Z,6.88
2023-05-10T12:55:58.505Z,5.97
2023-05-10T12:58:00.055Z,6.65
2023-05-10T13:00:02.015Z,6.18
2023-05-10T13:02:03.573Z,12.45
2023-05-10T13:04:05.122Z,3.70
2023-05-10T13:06:07.501Z,5.07
2023-05-10T13:08:09.118Z,5.50
2023-05-10T13:10:11.503Z,5.05
2023-05-10T13:12:13.158Z,3.58
2023-05-10T13:14:15.401Z,6.68
2023-05-10T13:16:16.950Z,6.82
2023-05-10T13:18:18.815Z,3.30
2023-05-10T13:20:20.692Z,4.13
2023-05-10T13:22:32.513Z,3.25
2023-05-10T13:24:41.132Z,9.05
2023-05-10T13:26:42.700Z,4.57
2023-05-10T13:28:44.529Z,4.72
2023-05-10T13:30:46.170Z,4.68
2023-05-10T13:32:47.801Z,5.35
2023-05-10T13:34:49.325Z,3.90
2023-05-10T13:36:51.272Z,2.78
2023-05-10T13:38:52.829Z,5.35
2023-05-10T13:40:54.396Z,3.72
2023-05-10T13:42:56.000Z,4.15
2023-05-10T13:44:57.553Z,3.92
2023-05-10T13:46:59.332Z,7.03
2023-05-10T13:49:00.914Z,2.97
2023-05-10T13:51:02.641Z,6.88
2023-05-10T13:53:04.153Z,4.95
2023-05-10T13:55:06.088Z,4.57
2023-05-10T13:57:07.788Z,3.55
2023-05-10T13:59:09.421Z,3.28
2023-05-10T14:01:11.129Z,9.68
2023-05-10T14:03:12.826Z,7.45
2023-05-10T14:05:14.741Z,5.47
2023-05-10T14:07:16.587Z,8.73
2023-05-10T14:09:18.311Z,8.15
2023-05-10T14:11:20.055Z,7.38
2023-05-10T14:13:21.651Z,5.55
2023-05-10T14:15:23.521Z,3.38
2023-05-10T14:17:25.083Z,4.43
2023-05-10T14:19:28.182Z,3.70
2023-05-10T14:21:32.416Z,5.30
2023-05-10T14:23:33.998Z,3.88
2023-05-10T14:25:36.033Z,5.47
2023-05-10T14:27:37.646Z,6.50
2023-05-10T14:29:39.261Z,2.95
2023-05-10T14:31:41.676Z,2.60
2023-05-10T14:33:43.929Z,4.22
2023-05-10T14:35:46.356Z,4.68
2023-05-10T14:37:47.918Z,4.22
2023-05-10T14:39:49.588Z,4.43
2023-05-10T14:41:52.479Z,4.03
2023-05-10T14:43:54.316Z,4.32
2023-05-10T14:45:56.097Z,8.15
2023-05-10T14:47:58.637Z,3.97
2023-05-10T14:50:00.247Z,4.72
2023-05-10T14:52:02.077Z,7.25
2023-05-10T14:54:03.918Z,6.22
2023-05-10T14:56:05.923Z,3.22
2023-05-10T14:58:07.517Z,2.97
2023-05-10T15:00:10.145Z,4.97
2023-05-10T15:02:12.241Z,7.38
2023-05-10T15:04:14.600Z,4.20
2023-05-10T15:06:17.483Z,5.15
2023-05-10T15:08:19.245Z,4.45
2023-05-10T15:10:20.987Z,3.88
2023-05-10T15:12:22.794Z,6.18
2023-05-10T15:14:24.569Z,5.25
2023-05-10T15:16:26.335Z,5.70
2023-05-10T15:18:28.146Z,4.97
2023-05-10T15:20:29.775Z,4.15
2023-05-10T15:22:34.276Z,3.40
2023-05-10T15:24:36.207Z,3.85
2023-05-10T15:26:37.935Z,3.47
2023-05-10T15:28:39.621Z,4.15
2023-05-10T15:30:41.176Z,6.22
2023-05-10T15:32:43.890Z,2.92
2023-05-10T15:34:45.598Z,5.25
2023-05-10T15:36:47.179Z,7.40
2023-05-10T15:38:48.830Z,8.48
2023-05-10T15:40:50.551Z,4.05
2023-05-10T15:42:52.210Z,5.53
2023-05-10T15:44:53.721Z,4.63
2023-05-10T15:46:55.493Z,3.30
2023-05-10T15:49:00.383Z,6.85
2023-05-10T15:51:01.930Z,8.93
2023-05-10T15:53:03.470Z,6.35
2023-05-10T15:55:12.669Z,4.53
2023-05-10T15:57:14.399Z,4.80
2023-05-10T15:59:16.035Z,4.85
2023-05-10T16:01:17.787Z,3.28
2023-05-10T16:03:19.477Z,8.65
2023-05-10T16:05:21.269Z,7.68
2023-05-10T16:07:22.861Z,16.15
2023-05-10T16:09:24.374Z,5.93
2023-05-10T16:11:26.149Z,11.65
2023-05-10T16:13:29.061Z,4.80
2023-05-10T16:15:30.640Z,11.88
2023-05-10T16:17:32.576Z,19.55
2023-05-10T16:19:34.328Z,17.38
2023-05-10T16:21:36.092Z,15.30
2023-05-10T16:23:37.902Z,13.23
2023-05-10T16:25:39.472Z,12.65
2023-05-10T16:27:41.165Z,10.55
2023-05-10T16:29:42.675Z,4.68
2023-05-10T16:31:44.274Z,8.70
2023-05-10T16:33:46.041Z,4.15
2023-05-10T16:35:47.764Z,31.63
2023-05-10T16:37:50.152Z,5.95
2023-05-10T16:39:51.748Z,4.93
2023-05-10T16:41:53.550Z,6.47
2023-05-10T16:43:55.500Z,8.65
2023-05-10T16:45:57.223Z,7.35
2023-05-10T16:47:58.838Z,6.55
2023-05-10T16:50:02.250Z,18.38
2023-05-10T16:52:04.515Z,7.60
2023-05-10T16:54:06.141Z,15.65
2023-05-10T16:56:07.749Z,6.70
2023-05-10T16:58:09.338Z,30.02
2023-05-10T17:00:12.010Z,48.63
2023-05-10T17:02:14.507Z,10.90
2023-05-10T17:04:16.544Z,16.13
2023-05-10T17:06:18.138Z,21.15
2023-05-10T17:08:19.681Z,105.60
2023-05-10T17:10:21.257Z,15.75
2023-05-10T17:12:22.817Z,69.72
2023-05-10T17:14:24.388Z,22.60
2023-05-10T17:16:26.083Z,14.25
2023-05-10T17:18:27.698Z,30.77
2023-05-10T17:20:29.345Z,34.47
2023-05-10T17:22:31.012Z,16.33
2023-05-10T17:24:33.139Z,9.63
2023-05-10T17:26:34.773Z,21.10
2023-05-10T17:28:36.343Z,11.50
2023-05-10T17:30:37.927Z,9.82
2023-05-10T17:32:39.616Z,7.35
2023-05-10T17:34:41.237Z,12.65
2023-05-10T17:36:42.870Z,17.08
2023-05-10T17:38:44.581Z,10.75
2023-05-10T17:40:46.144Z,83.82
2023-05-10T17:42:47.810Z,19.60
2023-05-10T17:44:49.374Z,14.35
2023-05-10T17:46:50.923Z,16.25
2023-05-10T17:48:52.699Z,8.90
2023-05-10T17:50:54.367Z,43.50
2023-05-10T17:52:56.009Z,42.63
2023-05-10T17:54:57.619Z,23.98
2023-05-10T17:57:00.932Z,8.82
2023-05-10T17:59:03.428Z,12.10
2023-05-10T18:01:05.704Z,12.40
2023-05-10T18:03:07.496Z,9.70
2023-05-10T18:05:11.029Z,8.80
2023-05-10T18:07:12.821Z,8.68
2023-05-10T18:09:16.163Z,13.00
2023-05-10T18:11:17.813Z,11.25
2023-05-10T18:13:19.374Z,9.77
2023-05-10T18:15:20.901Z,5.93
2023-05-10T18:17:22.482Z,7.72
2023-05-10T18:19:26.844Z,22.00
2023-05-10T18:21:29.008Z,77.95
2023-05-10T18:23:30.616Z,34.45
2023-05-10T18:25:32.337Z,84.88
2023-05-10T18:27:34.436Z,35.05
2023-05-10T18:29:37.028Z,83.35
2023-05-10T18:31:38.662Z,17.48
2023-05-10T18:33:40.282Z,18.50
2023-05-10T18:35:41.833Z,34.75
2023-05-10T18:37:43.445Z,36.58
2023-05-10T18:39:45.049Z,42.15
2023-05-10T18:41:46.667Z,22.17
2023-05-10T18:43:48.432Z,18.63
2023-05-10T18:45:51.234Z,26.98
2023-05-10T18:47:52.989Z,22.38
2023-05-10T18:49:55.240Z,22.30
2023-05-10T18:51:56.859Z,15.68
2023-05-10T18:53:58.543Z,15.18
2023-05-10T18:56:00.340Z,26.67
2023-05-10T18:58:01.987Z,15.70
2023-05-10T19:00:04.345Z,22.30
2023-05-10T19:02:05.998Z,18.42
2023-05-10T19:04:08.949Z,20.65
2023-05-10T19:06:11.518Z,34.97
2023-05-10T19:08:13.095Z,21.80
2023-05-10T19:10:14.709Z,23.42
2023-05-10T19:12:16.274Z,30.27
2023-05-10T19:14:17.828Z,33.90
2023-05-10T19:16:19.474Z,50.00
2023-05-10T19:18:21.094Z,31.88
2023-05-10T19:20:23.555Z,30.85
2023-05-10T19:22:36.070Z,30.70
2023-05-10T19:24:47.137Z,34.22
2023-05-10T19:26:49.321Z,22.05
2023-05-10T19:28:52.127Z,23.10
2023-05-10T19:30:53.841Z,23.83
2023-05-10T19:32:55.816Z,31.60
2023-05-10T19:34:57.336Z,17.42
2023-05-10T19:36:59.072Z,28.90
2023-05-10T19:39:00.582Z,19.83
2023-05-10T19:41:02.108Z,31.88
2023-05-10T19:43:03.826Z,25.52
2023-05-10T19:45:05.870Z,16.33
2023-05-10T19:47:09.055Z,17.60
2023-05-10T19:49:10.844Z,19.33
2023-05-10T19:51:13.972Z,25.30
2023-05-10T19:53:15.483Z,27.98
2023-05-10T19:55:27.216Z,44.45
2023-05-10T19:57:28.804Z,48.38
2023-05-10T19:59:30.310Z,35.55
2023-05-10T20:01:32.863Z,32.20
2023-05-10T20:03:35.942Z,37.08
2023-05-10T20:05:37.752Z,24.67
2023-05-10T20:07:39.318Z,28.15
2023-05-10T20:09:42.529Z,31.13
2023-05-10T20:11:44.014Z,26.50
2023-05-10T20:13:45.791Z,14.73
2023-05-10T20:15:47.521Z,20.90
2023-05-10T20:17:53.994Z,32.88
2023-05-10T20:19:55.585Z,48.25
2023-05-10T20:21:58.704Z,57.85
2023-05-10T20:24:00.304Z,34.88
2023-05-10T20:26:02.006Z,25.83
2023-05-10T20:28:03.896Z,22.80
2023-05-10T20:30:06.273Z,19.88
2023-05-10T20:32:07.835Z,23.55
2023-05-10T20:34:09.438Z,15.82
2023-05-10T20:36:10.998Z,17.85
2023-05-10T20:38:12.590Z,18.63
2023-05-10T20:40:14.239Z,30.48
2023-05-10T20:42:15.831Z,35.42
2023-05-10T20:44:17.349Z,26.60
2023-05-10T20:46:19.034Z,28.25
2023-05-10T20:48:20.959Z,23.48
2023-05-10T20:50:22.505Z,34.40
2023-05-10T20:52:24.673Z,26.55
2023-05-10T20:54:26.234Z,29.00
2023-05-10T20:56:28.037Z,28.90
2023-05-10T20:58:29.598Z,17.17
2023-05-10T21:00:31.204Z,30.67
2023-05-10T21:02:32.692Z,30.85
2023-05-10T21:04:34.295Z,42.35
2023-05-10T21:06:35.826Z,33.35
2023-05-10T21:08:37.301Z,22.27
2023-05-10T21:10:38.851Z,21.92
2023-05-10T21:12:40.528Z,25.08
2023-05-10T21:14:43.063Z,34.25
2023-05-10T21:16:44.823Z,34.53
2023-05-10T21:18:46.479Z,31.95
2023-05-10T21:20:48.036Z,19.83
2023-05-10T21:22:49.620Z,35.90
2023-05-10T21:24:51.598Z,15.98
2023-05-10T21:26:53.125Z,16.33
2023-05-10T21:28:54.680Z,13.60
2023-05-10T21:30:56.814Z,24.50
2023-05-10T21:32:59.987Z,20.77
2023-05-10T21:35:01.796Z,15.80
2023-05-10T21:37:03.291Z,15.45
2023-05-10T21:39:04.977Z,24.70
2023-05-10T21:41:07.818Z,19.98
2023-05-10T21:43:09.630Z,14.23
2023-05-10T21:45:11.560Z,30.77
2023-05-10T21:47:13.064Z,23.30
2023-05-10T21:49:14.592Z,28.98
2023-05-10T21:51:16.130Z,31.75
2023-05-10T21:53:17.830Z,30.63
2023-05-10T21:55:19.538Z,42.25
2023-05-10T21:57:21.554Z,17.65
2023-05-10T21:59:23.389Z,21.80
2023-05-10T22:01:24.905Z,18.85
2023-05-10T22:03:26.977Z,33.67
2023-05-10T22:05:28.703Z,21.40
2023-05-10T22:07:33.788Z,22.17
2023-05-10T22:09:35.495Z,32.67
2023-05-10T22:11:37.057Z,26.00
2023-05-10T22:13:38.685Z,22.70
2023-05-10T22:15:40.197Z,29.75
2023-05-10T22:17:41.708Z,21.95
2023-05-10T22:19:43.431Z,18.02
2023-05-10T22:21:44.914Z,23.98
2023-05-10T22:23:46.504Z,20.77
2023-05-10T22:25:48.250Z,18.20
2023-05-10T22:27:49.903Z,20.55
2023-05-10T22:29:51.812Z,21.08
2023-05-10T22:31:53.390Z,21.20
2023-05-10T22:33:54.932Z,24.83
2023-05-10T22:35:56.416Z,13.75
2023-05-10T22:37:58.082Z,19.05
2023-05-10T22:39:59.667Z,15.77
2023-05-10T22:42:01.229Z,19.27
2023-05-10T22:44:04.683Z,18.00
2023-05-10T22:46:06.286Z,17.73
2023-05-10T22:48:09.396Z,17.70
2023-05-10T22:50:11.892Z,15.82
2023-05-10T22:52:13.422Z,18.35
2023-05-10T22:54:14.950Z,18.48
2023-05-10T22:56:16.633Z,16.85
2023-05-10T22:58:18.607Z,13.35
2023-05-10T23:00:20.426Z,20.58
2023-05-10T23:02:22.187Z,13.93
2023-05-10T23:04:23.735Z,14.95
2023-05-10T23:06:25.358Z,11.40
2023-05-10T23:08:27.021Z,18.25
2023-05-10T23:10:28.674Z,11.75
2023-05-10T23:12:31.451Z,12.27
2023-05-10T23:14:33.169Z,16.98
2023-05-10T23:16:34.713Z,10.18
2023-05-10T23:18:36.324Z,11.43
2023-05-10T23:20:38.019Z,12.68
2023-05-10T23:22:40.099Z,14.82
2023-05-10T23:24:41.627Z,13.90
2023-05-10T23:26:45.231Z,13.27
2023-05-10T23:28:46.952Z,13.63
2023-05-10T23:30:55.647Z,12.75
2023-05-10T23:32:57.296Z,10.77
2023-05-10T23:34:59.015Z,15.57
2023-05-10T23:37:00.630Z,10.75
2023-05-10T23:39:02.123Z,11.45
2023-05-10T23:41:03.901Z,13.85
2023-05-10T23:43:05.458Z,10.60
2023-05-10T23:45:07.403Z,7.90
2023-05-10T23:47:09.090Z,10.68
2023-05-10T23:49:12.001Z,17.80
2023-05-10T23:51:13.508Z,14.82
2023-05-10T23:53:15.198Z,14.70
2023-05-10T23:55:16.894Z,9.48
2023-05-10T23:57:19.254Z,14.45
2023-05-10T23:59:20.946Z,13.98
